Time;durP1;ratioP1;P1;durP2;ratioP2;P2;SDS_P1;SDS_P2;PMS_P1;PMS_P2;Temp;Humidity;BMP_temperature;BMP_pressure;BME280_temperature;BME280_humidity;BME280_pressure;Samples;Min_cycle;Max_cycle;Signal;HPM_P1;HPM_P2
2022/09/06 00:01:48;;;;;;;0.50;0.32;;;;;;;17.45;48.66;99639.19;5147195;27;20109;-67
2022/09/06 00:04:13;;;;;;;1.55;0.73;;;;;;;17.44;48.66;99628.66;5147164;27;20098;-67
2022/09/06 00:06:38;;;;;;;1.45;0.55;;;;;;;17.44;48.65;99631.31;5146846;27;20030;-68
2022/09/06 00:09:04;;;;;;;1.70;0.40;;;;;;;17.44;48.42;99631.31;5150182;27;20064;-69
2022/09/06 00:11:29;;;;;;;0.90;0.60;;;;;;;17.44;48.40;99634.00;5150947;27;20066;-70
2022/09/06 00:13:55;;;;;;;0.82;0.50;;;;;;;17.43;48.40;99627.81;5150586;27;20025;-69
2022/09/06 00:16:23;;;;;;;0.98;0.50;;;;;;;17.43;48.59;99624.28;5150368;27;20031;-65
2022/09/06 00:18:52;;;;;;;1.10;0.52;;;;;;;17.43;48.61;99627.81;5140014;27;20125;-66
2022/09/06 00:21:24;;;;;;;1.85;0.60;;;;;;;17.45;48.51;99633.00;5129642;28;20044;-67
2022/09/06 00:23:50;;;;;;;2.75;0.50;;;;;;;17.43;48.50;99627.81;5130037;28;20043;-68
2022/09/06 00:26:16;;;;;;;1.25;0.40;;;;;;;17.44;48.54;99629.50;5130021;28;20035;-69
2022/09/06 00:28:42;;;;;;;1.27;0.60;;;;;;;17.43;48.58;99630.50;5148931;27;20260;-68
2022/09/06 00:31:26;;;;;;;0.70;0.50;;;;;;;17.45;48.35;99624.97;5150530;27;20031;-67
2022/09/06 00:33:52;;;;;;;2.80;0.43;;;;;;;17.44;48.57;99628.66;5150513;27;20069;-67
2022/09/06 00:36:19;;;;;;;2.28;0.55;;;;;;;17.45;48.39;99633.00;5150330;27;20041;-68
2022/09/06 00:38:45;;;;;;;0.63;0.47;;;;;;;17.45;48.43;99624.97;5148638;27;20023;-67
2022/09/06 00:41:13;;;;;;;0.80;0.40;;;;;;;17.45;48.29;99630.31;5150085;27;20041;-68
2022/09/06 00:43:40;;;;;;;1.05;0.60;;;;;;;17.44;48.51;99628.66;5150235;27;20037;-67
2022/09/06 00:46:08;;;;;;;1.05;0.55;;;;;;;17.44;48.30;99626.84;5150012;27;20019;-69
2022/09/06 00:48:36;;;;;;;0.90;0.50;;;;;;;17.44;48.26;99625.97;5149628;27;20151;-66
2022/09/06 00:51:05;;;;;;;1.02;0.50;;;;;;;17.43;48.25;99630.50;5149973;27;20026;-69
2022/09/06 00:53:31;;;;;;;1.75;0.50;;;;;;;17.42;48.30;99631.50;5149854;27;20082;-68
2022/09/06 00:55:57;;;;;;;1.25;0.55;;;;;;;17.43;48.17;99632.31;5149531;27;20087;-70
2022/09/06 00:58:23;;;;;;;3.15;0.50;;;;;;;17.42;48.33;99628.81;5149719;27;20027;-68
2022/09/06 01:00:49;;;;;;;0.43;0.40;;;;;;;17.40;48.27;99622.78;5149353;27;20019;-68
2022/09/06 01:03:14;;;;;;;0.55;0.30;;;;;;;17.42;48.17;99626.16;5149764;27;20045;-66
2022/09/06 01:05:50;;;;;;;2.38;0.60;;;;;;;17.42;48.31;99615.44;5149295;27;20062;-66
2022/09/06 01:08:25;;;;;;;0.40;0.30;;;;;;;17.39;48.36;99616.63;5149465;27;20098;-70
2022/09/06 01:11:04;;;;;;;0.52;0.35;;;;;;;17.39;48.32;99616.63;5149465;27;20027;-68
2022/09/06 01:14:00;;;;;;;0.88;0.32;;;;;;;17.42;48.33;99617.31;5149647;27;20026;-69
2022/09/06 01:16:38;;;;;;;1.02;0.60;;;;;;;17.37;48.14;99618.63;5149367;27;20147;-66
2022/09/06 01:19:58;;;;;;;0.63;0.40;;;;;;;17.38;48.12;99622.13;5148667;27;20050;-69
2022/09/06 01:22:56;;;;;;;1.02;0.40;;;;;;;17.39;48.41;99621.13;5046494;28;20065;-68
2022/09/06 01:25:36;;;;;;;1.10;0.50;;;;;;;17.38;48.40;99622.13;5046626;28;20025;-66
2022/09/06 01:28:26;;;;;;;0.98;0.40;;;;;;;17.37;48.07;99613.28;5138088;27;20039;-69
2022/09/06 01:31:29;;;;;;;0.63;0.30;;;;;;;17.37;48.28;99618.63;5131315;27;20236;-67
2022/09/06 01:34:14;;;;;;;1.38;0.40;;;;;;;17.36;48.19;99627.66;5149270;27;20098;-68
2022/09/06 01:36:47;;;;;;;0.73;0.65;;;;;;;17.37;48.20;99623.13;5159435;27;20085;-69
2022/09/06 01:39:23;;;;;;;1.70;0.22;;;;;;;17.40;48.17;99630.81;5170034;27;20022;-67
2022/09/06 01:41:49;;;;;;;0.95;0.40;;;;;;;17.38;48.27;99627.47;5169852;27;20026;-67
2022/09/06 01:44:15;;;;;;;0.85;0.40;;;;;;;17.37;48.21;99618.63;5169726;27;20077;-67
2022/09/06 01:47:11;;;;;;;0.75;0.40;;;;;;;17.39;48.22;99621.13;5169761;27;20046;-67
2022/09/06 01:49:55;;;;;;;1.08;0.47;;;;;;;17.39;48.27;99626.47;5138153;27;20026;-69
2022/09/06 01:52:39;;;;;;;0.57;0.35;;;;;;;17.37;47.93;99626.66;5169738;27;20156;-69
2022/09/06 01:55:10;;;;;;;0.80;0.20;;;;;;;17.37;48.22;99634.66;5152231;27;20228;-69
2022/09/06 01:57:57;;;;;;;0.90;0.38;;;;;;;17.35;48.27;99622.47;5148845;27;20095;-69
2022/09/06 02:00:24;;;;;;;0.73;0.40;;;;;;;17.35;48.01;99625.16;5148250;27;20027;-66
2022/09/06 02:02:49;;;;;;;2.65;0.40;;;;;;;17.36;48.00;99624.97;5152818;27;20204;-69
2022/09/06 02:05:25;;;;;;;0.95;0.35;;;;;;;17.37;48.07;99626.66;5148737;27;20030;-66
2022/09/06 02:07:56;;;;;;;1.35;0.43;;;;;;;17.36;48.10;99627.66;5148587;27;20027;-67
2022/09/06 02:10:28;;;;;;;1.38;0.65;;;;;;;17.36;48.06;99629.47;5148410;27;20346;-68
2022/09/06 02:12:58;;;;;;;0.98;0.40;;;;;;;17.35;48.05;99622.47;5147956;27;20034;-68
2022/09/06 02:15:33;;;;;;;0.55;0.30;;;;;;;17.35;48.00;99636.66;5148612;27;20256;-69
2022/09/06 02:18:08;;;;;;;1.67;0.40;;;;;;;17.34;48.04;99634.97;5148614;27;20019;-67
2022/09/06 02:20:40;;;;;;;0.20;0.20;;;;;;;17.35;47.96;99628.63;5148201;27;20047;-66
2022/09/06 02:23:07;;;;;;;0.43;0.40;;;;;;;17.35;48.13;99635.84;5148423;27;20043;-69
2022/09/06 02:25:46;;;;;;;1.33;0.35;;;;;;;17.35;48.25;99630.50;5148612;27;20143;-69
2022/09/06 02:28:11;;;;;;;0.45;0.40;;;;;;;17.34;48.23;99637.66;5148414;27;20019;-66
2022/09/06 02:30:41;;;;;;;0.50;0.40;;;;;;;17.36;48.39;99642.84;5148279;27;20046;-67
2022/09/06 02:33:12;;;;;;;1.13;0.60;;;;;;;17.36;48.02;99633.00;5148246;27;20038;-69
2022/09/06 02:35:44;;;;;;;0.52;0.30;;;;;;;17.36;48.23;99641.00;5147897;27;20220;-67
2022/09/06 02:38:10;;;;;;;0.43;0.43;;;;;;;17.36;48.16;99648.19;5147395;27;20015;-69
2022/09/06 02:40:36;;;;;;;2.35;0.40;;;;;;;17.34;48.00;99645.69;5147534;27;20019;-68
2022/09/06 02:43:02;;;;;;;0.32;0.30;;;;;;;17.34;47.99;99640.34;5147866;27;20024;-66
2022/09/06 02:45:27;;;;;;;0.90;0.35;;;;;;;17.34;48.11;99643.00;5147862;27;20039;-69
2022/09/06 02:47:53;;;;;;;4.80;0.40;;;;;;;17.35;48.24;99643.88;5148012;27;20185;-68
2022/09/06 02:50:18;;;;;;;0.40;0.32;;;;;;;17.34;48.03;99645.69;5148074;27;20129;-67
2022/09/06 02:52:44;;;;;;;0.32;0.20;;;;;;;17.35;48.20;99643.88;5147695;27;20224;-68
2022/09/06 02:55:10;;;;;;;0.43;0.32;;;;;;;17.35;48.02;99646.53;5147566;27;20189;-68
2022/09/06 02:57:35;;;;;;;0.77;0.40;;;;;;;17.35;48.31;99644.69;5147809;27;20030;-66
2022/09/06 03:00:03;;;;;;;0.32;0.32;;;;;;;17.34;48.04;99642.19;5147989;28;20138;-68
2022/09/06 03:02:28;;;;;;;1.60;0.50;;;;;;;17.34;47.93;99647.53;5147421;27;20117;-69
2022/09/06 03:04:54;;;;;;;0.60;0.30;;;;;;;17.33;48.02;99652.03;5147732;27;20084;-68
2022/09/06 03:07:19;;;;;;;0.85;0.43;;;;;;;17.32;47.84;99647.69;5147959;27;20088;-69
2022/09/06 03:09:45;;;;;;;1.58;0.35;;;;;;;17.33;47.94;99654.69;5147671;28;20042;-66
2022/09/06 03:12:10;;;;;;;0.50;0.32;;;;;;;17.33;47.97;99652.03;5147249;27;20019;-68
2022/09/06 03:14:36;;;;;;;1.55;0.35;;;;;;;17.33;47.82;99646.69;5140236;27;20035;-70
2022/09/06 03:17:03;;;;;;;0.77;0.45;;;;;;;17.34;47.97;99652.88;5146740;27;20254;-68
2022/09/06 03:19:28;;;;;;;1.95;0.30;;;;;;;17.34;47.91;99642.19;5147638;27;20026;-66
2022/09/06 03:21:53;;;;;;;0.68;0.30;;;;;;;17.34;48.00;99644.88;5147383;27;20047;-67
2022/09/06 03:24:19;;;;;;;0.55;0.32;;;;;;;17.34;47.88;99645.69;5147560;27;20080;-68
2022/09/06 03:26:44;;;;;;;0.57;0.40;;;;;;;17.32;47.77;99645.00;5147279;27;20037;-67
2022/09/06 03:29:10;;;;;;;2.15;0.40;;;;;;;17.33;47.81;99654.69;5147584;27;20050;-67
2022/09/06 03:31:35;;;;;;;0.20;0.20;;;;;;;17.33;47.89;99653.88;5147452;27;20027;-66
2022/09/06 03:34:01;;;;;;;0.82;0.43;;;;;;;17.34;47.70;99655.56;5147432;27;20163;-67
2022/09/06 03:36:26;;;;;;;0.88;0.43;;;;;;;17.34;47.84;99652.88;5147587;27;20210;-67
2022/09/06 03:38:52;;;;;;;0.85;0.60;;;;;;;17.33;47.60;99652.03;5147906;27;20117;-70
2022/09/06 03:41:18;;;;;;;0.90;0.50;;;;;;;17.34;47.76;99653.72;5147367;27;20138;-69
2022/09/06 03:43:44;;;;;;;0.73;0.40;;;;;;;17.35;47.53;99655.38;5150651;27;20047;-67
2022/09/06 03:46:09;;;;;;;0.82;0.38;;;;;;;17.35;47.55;99651.88;5150702;27;20030;-68
2022/09/06 03:48:35;;;;;;;1.38;0.50;;;;;;;17.34;47.61;99653.72;5151145;27;20090;-68
2022/09/06 03:51:00;;;;;;;0.65;0.50;;;;;;;17.34;47.62;99660.91;5151336;27;20047;-66
2022/09/06 03:53:27;;;;;;;2.28;0.38;;;;;;;17.35;47.79;99662.59;5151407;27;20118;-67
2022/09/06 03:55:54;;;;;;;0.95;0.52;;;;;;;17.34;47.42;99656.38;5151080;27;20120;-67
2022/09/06 03:58:22;;;;;;;0.63;0.35;;;;;;;17.34;47.55;99661.72;5150787;27;20035;-69
2022/09/06 04:00:48;;;;;;;0.75;0.57;;;;;;;17.35;47.99;99665.25;5151056;27;20058;-66
2022/09/06 04:03:13;;;;;;;1.77;0.25;;;;;;;17.36;48.04;99664.22;5150251;27;20015;-67
2022/09/06 04:05:39;;;;;;;1.38;0.50;;;;;;;17.36;48.24;99662.41;5150859;27;20042;-67
2022/09/06 04:08:05;;;;;;;1.80;0.93;;;;;;;17.37;47.95;99661.41;5151013;27;20027;-67
2022/09/06 04:10:31;;;;;;;1.40;0.40;;;;;;;17.39;48.15;99672.78;5150742;27;20023;-69
2022/09/06 04:12:56;;;;;;;0.45;0.40;;;;;;;17.38;48.11;99668.44;5150897;27;20015;-68
2022/09/06 04:15:22;;;;;;;1.80;0.50;;;;;;;17.38;47.86;99670.25;5150912;27;20042;-70
2022/09/06 04:17:47;;;;;;;0.68;0.47;;;;;;;17.40;47.73;99668.25;5150631;27;20065;-70
2022/09/06 04:20:14;;;;;;;1.88;0.30;;;;;;;17.38;47.71;99667.59;5150569;27;20023;-69
2022/09/06 04:22:39;;;;;;;0.30;0.30;;;;;;;17.40;47.97;99670.94;5150672;27;20087;-69
2022/09/06 04:25:06;;;;;;;0.60;0.25;;;;;;;17.37;47.67;99669.44;5132609;27;20232;-68
2022/09/06 04:27:31;;;;;;;2.03;0.50;;;;;;;17.39;47.77;99672.78;5150472;27;20064;-66
2022/09/06 04:29:57;;;;;;;1.45;0.60;;;;;;;17.38;47.72;99664.91;5150630;27;20023;-68
2022/09/06 04:32:22;;;;;;;1.98;0.30;;;;;;;17.39;47.71;99667.44;5150511;27;20228;-66
2022/09/06 04:34:48;;;;;;;0.75;0.40;;;;;;;17.41;47.65;99664.59;5150851;27;20272;-66
2022/09/06 04:37:16;;;;;;;0.55;0.40;;;;;;;17.42;47.70;99662.78;5150221;27;20105;-67
2022/09/06 04:39:43;;;;;;;1.55;0.50;;;;;;;17.43;47.56;99672.44;5150394;27;20020;-68
2022/09/06 04:42:08;;;;;;;0.35;0.30;;;;;;;17.44;47.60;99668.78;5150206;27;20228;-69
2022/09/06 04:44:34;;;;;;;1.73;0.55;;;;;;;17.45;47.68;99662.44;5150240;27;20075;-67
2022/09/06 04:47:05;;;;;;;2.10;0.50;;;;;;;17.45;47.63;99665.09;5150203;27;20027;-67
2022/09/06 04:49:31;;;;;;;0.20;0.20;;;;;;;17.44;47.60;99669.63;5150232;27;20300;-68
2022/09/06 04:51:56;;;;;;;0.60;0.40;;;;;;;17.43;47.39;99667.09;5149075;27;20023;-67
2022/09/06 04:54:22;;;;;;;0.95;0.30;;;;;;;17.44;47.25;99666.94;5148552;27;20023;-68
2022/09/06 04:56:47;;;;;;;0.63;0.40;;;;;;;17.45;47.20;99665.94;5149928;27;20019;-67
2022/09/06 04:59:13;;;;;;;0.52;0.30;;;;;;;17.45;47.17;99668.63;5150024;27;20027;-66
2022/09/06 05:01:38;;;;;;;0.60;0.30;;;;;;;17.46;47.29;99674.81;5149436;27;20035;-67
2022/09/06 05:04:03;;;;;;;0.43;0.32;;;;;;;17.45;47.17;99667.78;5149094;27;20082;-71
2022/09/06 05:06:29;;;;;;;1.60;0.28;;;;;;;17.46;47.42;99677.47;5149412;27;20023;-69
2022/09/06 05:08:54;;;;;;;6.22;2.13;;;;;;;17.46;47.26;99680.16;5148978;27;20094;-67
2022/09/06 05:11:20;;;;;;;0.60;0.40;;;;;;;17.46;47.34;99672.97;5149293;27;20035;-68
2022/09/06 05:13:46;;;;;;;0.40;0.40;;;;;;;17.48;47.36;99665.63;5149885;27;20055;-67
2022/09/06 05:16:12;;;;;;;0.45;0.40;;;;;;;17.52;46.94;99668.81;5149054;27;20087;-66
2022/09/06 05:18:37;;;;;;;2.22;0.45;;;;;;;17.54;46.66;99661.47;5149844;27;20031;-67
2022/09/06 05:21:03;;;;;;;0.32;0.30;;;;;;;17.58;46.70;99664.66;5149245;27;20293;-66
2022/09/06 05:23:28;;;;;;;1.10;0.30;;;;;;;17.61;46.39;99659.78;5149537;27;20066;-69
2022/09/06 05:25:54;;;;;;;1.33;0.30;;;;;;;17.64;46.24;99672.03;5149371;27;20124;-67
2022/09/06 05:28:20;;;;;;;3.45;0.38;;;;;;;17.65;46.22;99662.97;5148996;27;20035;-66
2022/09/06 05:30:46;;;;;;;0.40;0.30;;;;;;;17.66;46.03;99661.97;5149131;27;20083;-67
2022/09/06 05:33:13;;;;;;;0.38;0.32;;;;;;;17.67;46.15;99660.97;5149327;27;20034;-66
2022/09/06 05:35:39;;;;;;;0.85;0.38;;;;;;;17.66;45.90;99665.50;5148597;27;20035;-68
2022/09/06 05:38:04;;;;;;;0.30;0.28;;;;;;;17.66;45.90;99667.31;5149216;27;20117;-66
2022/09/06 05:40:30;;;;;;;0.47;0.20;;;;;;;17.66;45.99;99660.16;5149054;27;20038;-67
2022/09/06 05:42:56;;;;;;;0.43;0.20;;;;;;;17.66;45.96;99660.16;5149083;27;20038;-66
2022/09/06 05:45:21;;;;;;;0.50;0.30;;;;;;;17.68;45.96;99663.50;5149090;27;20030;-67
2022/09/06 05:47:47;;;;;;;3.70;0.47;;;;;;;17.67;45.62;99655.63;5148679;27;20351;-66
2022/09/06 05:50:12;;;;;;;0.20;0.20;;;;;;;17.69;45.79;99656.31;5148973;27;20106;-68
2022/09/06 05:52:38;;;;;;;0.70;0.20;;;;;;;17.70;45.83;99655.31;5148868;27;20027;-69
2022/09/06 05:55:05;;;;;;;0.55;0.22;;;;;;;17.72;45.64;99660.50;5148863;27;20233;-69
2022/09/06 05:57:30;;;;;;;1.48;0.40;;;;;;;17.72;45.86;99655.16;5147504;27;20039;-67
2022/09/06 05:59:56;;;;;;;0.65;0.50;;;;;;;17.69;45.85;99657.16;5128065;27;20086;-68
2022/09/06 06:02:22;;;;;;;0.80;0.40;;;;;;;17.73;46.01;99659.47;5145820;27;20287;-70
2022/09/06 06:04:48;;;;;;;0.55;0.30;;;;;;;17.74;45.97;99663.84;5148493;27;20023;-68
2022/09/06 06:07:13;;;;;;;0.63;0.30;;;;;;;17.74;45.51;99666.50;5148321;27;20034;-69
2022/09/06 06:09:39;;;;;;;1.25;0.47;;;;;;;17.72;45.52;99668.53;5148529;27;20050;-68
2022/09/06 06:12:05;;;;;;;0.52;0.32;;;;;;;17.72;45.77;99668.53;5148512;27;20076;-67
2022/09/06 06:14:31;;;;;;;3.35;0.50;;;;;;;17.72;45.65;99674.72;5148599;27;20043;-68
2022/09/06 06:16:56;;;;;;;0.60;0.32;;;;;;;17.72;45.96;99663.19;5148477;27;20038;-68
2022/09/06 06:19:22;;;;;;;0.95;0.40;;;;;;;17.74;45.88;99662.00;5148355;27;20037;-67
2022/09/06 06:21:47;;;;;;;0.52;0.30;;;;;;;17.75;45.74;99671.72;5148041;27;20053;-66
2022/09/06 06:24:13;;;;;;;2.17;0.47;;;;;;;17.75;45.89;99671.72;5148265;27;20027;-69
2022/09/06 06:26:39;;;;;;;0.57;0.50;;;;;;;17.77;45.81;99663.50;5148196;27;20247;-68
2022/09/06 06:29:08;;;;;;;2.03;0.98;;;;;;;17.78;45.68;99671.38;5148292;27;20047;-68
2022/09/06 06:31:35;;;;;;;0.45;0.40;;;;;;;17.75;45.84;99669.03;5148168;27;20030;-69
2022/09/06 06:34:03;;;;;;;1.27;0.70;;;;;;;17.79;45.59;99669.53;5148244;27;20039;-68
2022/09/06 06:36:32;;;;;;;0.95;0.43;;;;;;;17.79;45.62;99669.53;5148074;27;20037;-68
2022/09/06 06:38:59;;;;;;;0.80;0.43;;;;;;;17.80;45.57;99664.00;5148155;27;20023;-67
2022/09/06 06:41:26;;;;;;;1.48;0.50;;;;;;;17.84;45.70;99664.53;5147948;27;20023;-69
2022/09/06 06:43:57;;;;;;;1.17;0.45;;;;;;;17.87;45.21;99663.34;5148141;27;20027;-67
2022/09/06 06:46:25;;;;;;;0.80;0.50;;;;;;;17.88;45.27;99663.19;5148017;27;20090;-69
2022/09/06 06:48:50;;;;;;;0.50;0.50;;;;;;;17.91;45.13;99667.38;5129119;27;20209;-68
2022/09/06 06:51:18;;;;;;;0.73;0.52;;;;;;;17.91;45.00;99662.84;5142311;27;20058;-67
2022/09/06 06:53:46;;;;;;;1.98;0.70;;;;;;;17.91;45.09;99657.50;5148245;27;20023;-71
2022/09/06 06:56:20;;;;;;;1.27;0.73;;;;;;;17.90;45.42;99661.19;5147810;27;20023;-69
2022/09/06 06:58:48;;;;;;;0.95;0.60;;;;;;;17.91;44.98;99662.84;5147912;27;20245;-67
2022/09/06 07:01:15;;;;;;;1.95;0.77;;;;;;;17.89;45.34;99662.19;5147814;27;20124;-68
2022/09/06 07:03:40;;;;;;;1.00;0.43;;;;;;;17.90;45.59;99663.84;5148017;27;20192;-69
2022/09/06 07:06:06;;;;;;;4.47;0.73;;;;;;;17.91;45.58;99665.53;5147905;27;20079;-69
2022/09/06 07:08:32;;;;;;;0.70;0.45;;;;;;;17.95;45.32;99668.72;5147683;27;20030;-67
2022/09/06 07:10:57;;;;;;;1.05;0.52;;;;;;;17.94;45.37;99656.34;5147824;27;20124;-68
2022/09/06 07:13:23;;;;;;;0.77;0.55;;;;;;;17.96;45.23;99671.25;5147725;27;20023;-65
2022/09/06 07:15:49;;;;;;;1.05;0.57;;;;;;;17.99;44.93;99665.59;5147564;27;20105;-69
2022/09/06 07:18:15;;;;;;;0.98;0.77;;;;;;;18.03;44.23;99659.88;5131860;27;20019;-67
2022/09/06 07:20:41;;;;;;;1.25;0.60;;;;;;;18.06;44.40;99655.06;5151633;27;20036;-67
2022/09/06 07:23:06;;;;;;;1.10;0.45;;;;;;;18.08;44.27;99649.53;5151957;27;20347;-68
2022/09/06 07:25:32;;;;;;;1.02;0.70;;;;;;;18.12;43.84;99648.19;5151830;27;20027;-68
2022/09/06 07:28:05;;;;;;;1.13;0.52;;;;;;;18.12;44.09;99649.00;5151840;27;20023;-67
2022/09/06 07:30:33;;;;;;;4.47;0.65;;;;;;;18.16;43.88;99660.22;5151724;27;20099;-69
2022/09/06 07:32:59;;;;;;;1.23;0.65;;;;;;;18.17;43.81;99642.31;5151736;27;20023;-67
2022/09/06 07:35:25;;;;;;;1.05;0.55;;;;;;;18.19;43.73;99646.50;5151702;27;20023;-68
2022/09/06 07:37:59;;;;;;;0.70;0.45;;;;;;;18.20;43.76;99656.22;5150874;27;20030;-69
2022/09/06 07:40:26;;;;;;;0.85;0.55;;;;;;;18.21;43.97;99641.81;5151287;27;20031;-67
2022/09/06 07:42:55;;;;;;;1.20;0.70;;;;;;;18.23;43.71;99650.53;5151337;27;20037;-68
2022/09/06 07:45:20;;;;;;;2.83;1.00;;;;;;;18.27;43.48;99651.88;5151424;27;20039;-68
2022/09/06 07:47:53;;;;;;;2.35;0.90;;;;;;;18.28;43.10;99647.34;5151195;27;20019;-69
2022/09/06 07:50:19;;;;;;;1.27;0.80;;;;;;;18.28;43.24;99636.63;5151452;27;20027;-69
2022/09/06 07:52:45;;;;;;;1.98;0.73;;;;;;;18.25;43.30;99639.63;5150703;27;20190;-69
2022/09/06 07:55:10;;;;;;;3.72;0.82;;;;;;;18.25;43.06;99645.84;5151209;27;20046;-69
2022/09/06 07:57:36;;;;;;;1.00;0.63;;;;;;;18.24;43.00;99643.31;5151185;27;20034;-68
2022/09/06 08:00:03;;;;;;;0.88;0.70;;;;;;;18.23;43.03;99636.31;5151259;27;20086;-69
2022/09/06 08:02:30;;;;;;;2.78;0.60;;;;;;;18.25;43.04;99642.31;5150623;27;20027;-69
2022/09/06 08:04:56;;;;;;;2.28;1.10;;;;;;;18.25;43.01;99643.16;5151225;27;20222;-66
2022/09/06 08:07:23;;;;;;;2.95;1.08;;;;;;;18.26;42.93;99644.84;5150970;27;20027;-71
2022/09/06 08:09:49;;;;;;;2.78;1.10;;;;;;;18.30;43.00;99631.94;5150782;27;20054;-68
2022/09/06 08:12:14;;;;;;;6.57;1.67;;;;;;;18.32;43.07;99637.97;5150683;27;20071;-65
2022/09/06 08:14:40;;;;;;;7.68;4.03;;;;;;;18.34;44.16;99651.19;5150331;27;20107;-68
2022/09/06 08:17:05;;;;;;;7.55;4.28;;;;;;;18.34;44.09;99638.63;5150831;27;20026;-66
2022/09/06 08:19:31;;;;;;;11.25;4.85;;;;;;;18.33;43.78;99628.94;5150872;27;20023;-68
2022/09/06 08:21:56;;;;;;;15.73;5.78;;;;;;;18.32;44.11;99629.06;5150233;27;20265;-69
2022/09/06 08:24:22;;;;;;;12.65;4.85;;;;;;;18.29;44.06;99636.47;5150770;27;20035;-69
2022/09/06 08:26:47;;;;;;;10.73;4.82;;;;;;;18.27;43.89;99633.13;5149878;27;20083;-67
2022/09/06 08:29:13;;;;;;;12.63;6.78;;;;;;;18.25;44.39;99635.13;5150037;27;20034;-68
2022/09/06 08:31:42;;;;;;;16.98;6.68;;;;;;;18.24;44.67;99628.09;5150448;27;20023;-69
2022/09/06 08:34:08;;;;;;;11.95;5.50;;;;;;;18.25;44.48;99613.69;5150501;27;20096;-69
2022/09/06 08:36:34;;;;;;;16.17;6.75;;;;;;;18.28;44.60;99615.19;5149875;27;20023;-67
2022/09/06 08:39:03;;;;;;;13.60;5.03;;;;;;;18.32;44.23;99623.72;5150268;27;20155;-69
2022/09/06 08:41:43;;;;;;;13.18;5.95;;;;;;;18.36;44.31;99615.19;5150009;27;20180;-68
2022/09/06 08:44:17;;;;;;;11.73;5.27;;;;;;;18.38;44.41;99607.81;5150217;27;20220;-69
2022/09/06 08:47:03;;;;;;;21.65;9.85;;;;;;;18.41;45.03;99617.38;5148903;27;20015;-68
2022/09/06 08:49:32;;;;;;;14.38;7.50;;;;;;;18.45;45.12;99606.13;5150163;27;20019;-69
2022/09/06 08:52:19;;;;;;;15.75;7.97;;;;;;;18.53;45.70;99613.31;5149408;27;20079;-67
2022/09/06 08:54:54;;;;;;;15.85;7.20;;;;;;;18.58;45.80;99615.47;5150057;27;20094;-67
2022/09/06 08:57:35;;;;;;;10.15;4.95;;;;;;;18.64;45.28;99608.59;5150042;27;20031;-67
2022/09/06 09:00:07;;;;;;;14.52;6.43;;;;;;;18.65;45.67;99607.59;5129409;27;20031;-68
2022/09/06 09:02:42;;;;;;;5.65;3.47;;;;;;;18.67;44.94;99602.91;5140451;27;20045;-68
2022/09/06 09:05:19;;;;;;;11.13;4.82;;;;;;;18.67;44.86;99609.13;5149949;27;20034;-69
2022/09/06 09:07:52;;;;;;;16.63;7.70;;;;;;;18.67;45.63;99618.97;5149591;27;20039;-69
2022/09/06 09:10:26;;;;;;;8.32;3.65;;;;;;;18.68;44.95;99612.59;5149660;27;20282;-69
2022/09/06 09:12:52;;;;;;;12.23;6.20;;;;;;;18.69;45.40;99619.66;5149239;27;20019;-68
2022/09/06 09:15:24;;;;;;;15.63;6.68;;;;;;;18.69;45.82;99622.31;5149667;27;20257;-66
2022/09/06 09:17:51;;;;;;;12.80;6.95;;;;;;;18.73;46.61;99621.81;5148758;27;20023;-66
2022/09/06 09:20:17;;;;;;;8.70;4.63;;;;;;;18.76;46.25;99618.78;5149619;27;20027;-68
2022/09/06 09:22:43;;;;;;;12.27;6.88;;;;;;;18.79;46.20;99612.22;5149496;27;20267;-68
2022/09/06 09:25:20;;;;;;;9.75;4.72;;;;;;;18.83;46.55;99621.63;5149495;27;20256;-69
2022/09/06 09:27:48;;;;;;;6.45;3.63;;;;;;;18.85;46.01;99614.22;5149964;27;20030;-66
2022/09/06 09:30:14;;;;;;;14.60;4.55;;;;;;;18.85;45.99;99603.50;5149355;27;20027;-66
2022/09/06 09:32:44;;;;;;;7.25;2.90;;;;;;;18.85;45.35;99603.50;5149261;27;20039;-68
2022/09/06 09:35:16;;;;;;;7.40;3.13;;;;;;;18.88;45.07;99602.31;5149322;27;20031;-67
2022/09/06 09:37:42;;;;;;;7.97;2.92;;;;;;;18.88;45.21;99607.69;5152560;27;20019;-68
2022/09/06 09:40:27;;;;;;;5.70;2.40;;;;;;;18.90;44.96;99603.81;5149136;27;20026;-70
2022/09/06 09:43:07;;;;;;;12.65;2.72;;;;;;;18.91;45.22;99600.13;5162837;27;20018;-66
2022/09/06 09:45:33;;;;;;;6.07;2.95;;;;;;;18.91;45.05;99605.47;5153800;27;20082;-62
2022/09/06 09:48:17;;;;;;;6.53;3.00;;;;;;;18.92;44.87;99596.44;5148124;27;20066;-66
2022/09/06 09:50:43;;;;;;;4.90;2.28;;;;;;;18.92;44.94;99603.66;5149193;27;20019;-67
2022/09/06 09:53:11;;;;;;;6.13;2.47;;;;;;;18.95;45.07;99597.13;5146382;27;21285;-65
2022/09/06 09:55:37;;;;;;;4.47;2.50;;;;;;;18.97;44.64;99597.78;5146718;27;20027;-64
2022/09/06 09:58:05;;;;;;;7.70;2.67;;;;;;;18.98;44.33;99605.66;5151855;27;20181;-65
2022/09/06 10:00:38;;;;;;;9.43;2.25;;;;;;;18.96;44.61;99606.84;5149800;27;20043;-67
2022/09/06 10:03:23;;;;;;;4.40;1.65;;;;;;;18.94;44.22;99603.47;5150284;27;20050;-66
2022/09/06 10:05:57;;;;;;;2.88;1.90;;;;;;;18.90;44.54;99597.63;5148014;27;20046;-65
2022/09/06 10:08:24;;;;;;;4.55;1.58;;;;;;;18.86;44.16;99599.81;5148769;27;20095;-65
2022/09/06 10:10:50;;;;;;;2.90;1.35;;;;;;;18.83;44.00;99602.84;5149289;27;20041;-65
2022/09/06 10:13:28;;;;;;;4.72;2.40;;;;;;;18.82;43.90;99601.16;5152412;27;20135;-64
2022/09/06 10:15:54;;;;;;;5.75;1.48;;;;;;;18.82;43.82;99597.66;5151194;27;20301;-67
2022/09/06 10:18:41;;;;;;;2.83;1.60;;;;;;;18.83;43.75;99596.63;5148444;27;20099;-64
2022/09/06 10:21:11;;;;;;;5.07;1.60;;;;;;;18.86;43.78;99601.66;5147784;27;20047;-65
2022/09/06 10:23:55;;;;;;;2.15;0.93;;;;;;;18.87;43.69;99598.81;5144092;27;20030;-67
2022/09/06 10:26:29;;;;;;;3.03;1.30;;;;;;;18.87;43.67;99588.09;5148032;27;20031;-67
2022/09/06 10:29:04;;;;;;;4.82;1.70;;;;;;;18.91;43.45;99594.75;5157456;27;20033;-65
2022/09/06 10:31:32;;;;;;;2.53;1.30;;;;;;;18.92;43.61;99590.25;5147698;27;20046;-67
2022/09/06 10:34:16;;;;;;;3.03;1.20;;;;;;;18.94;43.71;99590.06;5154325;27;20062;-66
2022/09/06 10:36:52;;;;;;;2.47;1.13;;;;;;;18.93;43.32;99591.91;5147241;27;20027;-66
2022/09/06 10:39:38;;;;;;;7.85;1.42;;;;;;;18.94;43.68;99590.06;5149595;27;20345;-66
2022/09/06 10:42:34;;;;;;;1.73;0.80;;;;;;;18.92;43.28;99595.59;5151034;27;20254;-65
2022/09/06 10:45:25;;;;;;;3.55;1.00;;;;;;;18.91;43.15;99594.75;5142681;27;20288;-67
2022/09/06 10:47:56;;;;;;;2.63;1.27;;;;;;;18.91;43.78;99594.75;5147497;27;20157;-65
2022/09/06 10:50:29;;;;;;;;;;;;;;;18.84;43.86;99588.44;5148411;27;20041;-69
2022/09/06 10:53:00;;;;;;;1.48;0.70;;;;;;;18.85;43.75;99590.09;5146918;27;19903;-65
2022/09/06 10:55:28;;;;;;;1.75;0.73;;;;;;;18.86;43.95;99596.28;5147910;27;20031;-66
2022/09/06 10:58:03;;;;;;;3.25;1.00;;;;;;;18.86;43.81;99596.28;5147969;27;20090;-64
2022/09/06 11:00:34;;;;;;;1.95;0.85;;;;;;;18.84;43.70;99593.81;5148253;27;20039;-66
2022/09/06 11:03:00;;;;;;;;;;;;;;;18.78;43.87;99604.38;5130595;27;20044;-66
2022/09/06 11:05:33;;;;;;;2.33;1.33;;;;;;;18.79;43.71;99595.34;5127238;28;20129;-66
2022/09/06 11:08:01;;;;;;;8.00;1.10;;;;;;;18.80;43.91;99597.81;5127228;28;20160;-68
2022/09/06 11:10:30;;;;;;;6.60;1.65;;;;;;;18.81;43.99;99598.69;5127063;27;20042;-66
2022/09/06 11:13:16;;;;;;;2.10;1.00;;;;;;;18.80;44.12;99594.31;5127228;28;20201;-69
2022/09/06 11:15:54;;;;;;;2.72;1.40;;;;;;;18.76;43.98;99589.31;5131564;27;20038;-64
2022/09/06 11:18:22;;;;;;;1.65;0.68;;;;;;;18.78;43.86;99599.00;5147185;27;20080;-66
2022/09/06 11:21:14;;;;;;;1.58;1.00;;;;;;;18.79;43.43;99596.16;5147334;27;20039;-65
2022/09/06 11:23:56;;;;;;;2.33;1.00;;;;;;;18.77;43.45;99590.13;5146468;27;20031;-68
2022/09/06 11:26:24;;;;;;;1.00;0.68;;;;;;;18.76;43.33;99596.50;5147269;27;20039;-69
2022/09/06 11:28:57;;;;;;;3.10;1.00;;;;;;;18.75;43.32;99595.66;5129559;27;20047;-65
2022/09/06 11:31:27;;;;;;;1.88;0.70;;;;;;;18.75;43.35;99586.78;5147536;27;20046;-66
2022/09/06 11:34:05;;;;;;;2.43;0.60;;;;;;;18.72;43.48;99585.28;5147604;27;20020;-66
2022/09/06 11:36:36;;;;;;;1.92;1.08;;;;;;;18.73;43.40;99586.13;5147475;27;20312;-67
2022/09/06 11:39:05;;;;;;;2.03;0.88;;;;;;;18.72;43.29;99579.09;5147796;27;20054;-65
2022/09/06 11:41:40;;;;;;;1.58;1.08;;;;;;;18.71;43.33;99591.66;5147321;27;20054;-64
2022/09/06 11:44:09;;;;;;;1.23;0.68;;;;;;;18.70;43.33;99581.13;5147346;27;20015;-66
2022/09/06 11:46:34;;;;;;;1.73;0.80;;;;;;;18.70;43.16;99579.25;5147234;27;20046;-68